createdAt,value
2024-02-29T00:00:10.151Z,11.64
2024-02-29T00:01:10.271Z,11.64
2024-02-29T00:02:10.138Z,11.59
2024-02-29T00:03:10.345Z,11.54
2024-02-29T00:04:10.242Z,11.41
2024-02-29T00:05:10.079Z,11.38
2024-02-29T00:06:10.104Z,11.32
2024-02-29T00:07:10.293Z,11.27
2024-02-29T00:08:10.064Z,11.29
2024-02-29T00:09:10.039Z,11.32
2024-02-29T00:10:10.517Z,11.32
2024-02-29T00:11:10.035Z,11.34
2024-02-29T00:12:10.011Z,11.29
2024-02-29T00:13:10.073Z,11.28
2024-02-29T00:14:10.006Z,11.31
2024-02-29T00:15:09.961Z,11.35
2024-02-29T00:16:10.017Z,11.38
2024-02-29T00:17:09.937Z,11.41
2024-02-29T00:18:09.996Z,11.38
2024-02-29T00:19:10.110Z,11.34
2024-02-29T00:20:09.928Z,11.27
2024-02-29T00:21:09.886Z,11.14
2024-02-29T00:22:09.895Z,11.07
2024-02-29T00:23:09.856Z,11.06
2024-02-29T00:24:09.830Z,11.06
2024-02-29T00:25:09.954Z,11.01
2024-02-29T00:26:09.816Z,10.99
2024-02-29T00:27:09.791Z,11.03
2024-02-29T00:28:09.905Z,11.06
2024-02-29T00:29:09.785Z,11.01
2024-02-29T00:30:09.767Z,10.95
2024-02-29T00:31:09.774Z,10.86
2024-02-29T00:32:09.731Z,10.89
2024-02-29T00:33:09.742Z,10.92
2024-02-29T00:34:09.793Z,10.92
2024-02-29T00:35:09.674Z,10.89
2024-02-29T00:36:10.469Z,10.96
2024-02-29T00:37:09.760Z,10.98
2024-02-29T00:38:09.667Z,10.98
2024-02-29T00:39:14.784Z,11.02
2024-02-29T00:40:10.819Z,11.02
2024-02-29T00:41:09.611Z,11.02
2024-02-29T00:42:09.602Z,10.99
2024-02-29T00:43:09.701Z,10.98
2024-02-29T00:44:09.582Z,11.02
2024-02-29T00:45:09.617Z,11.03
2024-02-29T00:46:09.608Z,11.03
2024-02-29T00:47:09.544Z,10.98
2024-02-29T00:48:09.551Z,10.95
2024-02-29T00:49:09.634Z,10.95
2024-02-29T00:50:09.538Z,10.96
2024-02-29T00:51:09.493Z,10.98
2024-02-29T00:52:09.833Z,10.96
2024-02-29T00:53:09.450Z,10.95
2024-02-29T00:54:09.440Z,10.88
2024-02-29T00:55:09.488Z,10.77
2024-02-29T00:56:09.408Z,10.74
2024-02-29T00:57:09.429Z,10.73
2024-02-29T00:58:09.438Z,10.73
2024-02-29T00:59:09.377Z,10.73
2024-02-29T01:00:09.361Z,10.74
2024-02-29T01:01:09.437Z,10.74
2024-02-29T01:02:09.360Z,10.73
2024-02-29T01:03:09.345Z,10.74
2024-02-29T01:04:09.358Z,10.73
2024-02-29T01:05:09.365Z,10.70
2024-02-29T01:06:09.323Z,10.68
2024-02-29T01:07:09.351Z,10.62
2024-02-29T01:08:09.249Z,10.59
2024-02-29T01:09:09.260Z,10.51
2024-02-29T01:10:09.317Z,10.51
2024-02-29T01:11:09.237Z,10.44
2024-02-29T01:12:09.241Z,10.44
2024-02-29T01:13:09.228Z,10.47
2024-02-29T01:14:09.193Z,10.51
2024-02-29T01:15:09.176Z,10.47
2024-02-29T01:16:09.256Z,10.42
2024-02-29T01:17:09.172Z,10.36
2024-02-29T01:18:09.193Z,10.33
2024-02-29T01:19:09.138Z,10.28
2024-02-29T01:20:09.119Z,10.26
2024-02-29T01:21:09.097Z,10.24
2024-02-29T01:22:09.111Z,10.17
2024-02-29T01:23:09.075Z,10.18
2024-02-29T01:24:09.077Z,10.24
2024-02-29T01:25:09.087Z,10.26
2024-02-29T01:26:09.020Z,10.33
2024-02-29T01:27:09.017Z,10.36
2024-02-29T01:28:09.079Z,10.40
2024-02-29T01:29:08.988Z,10.47
2024-02-29T01:30:08.993Z,10.52
2024-02-29T01:31:09.049Z,10.56
2024-02-29T01:32:18.348Z,10.59
2024-02-29T01:33:09.997Z,10.60
2024-02-29T01:34:08.925Z,10.60
2024-02-29T01:35:08.926Z,10.63
2024-02-29T01:36:08.932Z,10.63
2024-02-29T01:37:08.988Z,10.63
2024-02-29T01:38:08.858Z,10.62
2024-02-29T01:39:08.846Z,10.59
2024-02-29T01:40:08.968Z,10.52
2024-02-29T01:41:08.860Z,10.53
2024-02-29T01:42:08.829Z,10.56
2024-02-29T01:43:08.827Z,10.60
2024-02-29T01:44:08.793Z,10.60
2024-02-29T01:45:08.755Z,10.60
2024-02-29T01:46:08.779Z,10.56
2024-02-29T01:47:08.755Z,10.53
2024-02-29T01:48:08.836Z,10.51
2024-02-29T01:49:08.792Z,10.43
2024-02-29T01:50:08.690Z,10.33
2024-02-29T01:51:08.700Z,10.28
2024-02-29T01:52:08.771Z,10.26
2024-02-29T01:53:08.703Z,10.30
2024-02-29T01:54:08.684Z,10.33
2024-02-29T01:55:08.677Z,10.34
2024-02-29T01:56:08.626Z,10.36
2024-02-29T01:57:08.628Z,10.36
2024-02-29T01:58:10.403Z,10.39
2024-02-29T01:59:08.609Z,10.30
2024-02-29T02:00:08.586Z,10.24
2024-02-29T02:01:08.691Z,10.25
2024-02-29T02:02:08.534Z,10.28
2024-02-29T02:03:08.540Z,10.28
2024-02-29T02:04:08.637Z,10.28
2024-02-29T02:05:08.709Z,10.24
2024-02-29T02:06:08.533Z,10.17
2024-02-29T02:07:08.558Z,10.09
2024-02-29T02:08:08.594Z,10.04
2024-02-29T02:09:08.466Z,10.03
2024-02-29T02:10:09.246Z,9.99
2024-02-29T02:11:08.470Z,9.96
2024-02-29T02:12:08.439Z,10.03
2024-02-29T02:13:08.421Z,9.96
2024-02-29T02:14:08.382Z,9.94
2024-02-29T02:15:08.389Z,9.81
2024-02-29T02:16:08.400Z,9.50
2024-02-29T02:17:08.355Z,9.56
2024-02-29T02:18:08.423Z,9.68
2024-02-29T02:19:08.416Z,9.73
2024-02-29T02:20:08.399Z,9.76
2024-02-29T02:21:08.273Z,9.79
2024-02-29T02:22:08.341Z,9.79
2024-02-29T02:23:08.273Z,9.83
2024-02-29T02:24:08.267Z,9.81
2024-02-29T02:25:08.409Z,9.75
2024-02-29T02:26:08.208Z,9.76
2024-02-29T02:27:08.209Z,9.73
2024-02-29T02:28:08.293Z,9.85
2024-02-29T02:29:08.197Z,9.96
2024-02-29T02:30:08.341Z,10.04
2024-02-29T02:31:08.270Z,10.06
2024-02-29T02:32:08.154Z,9.97
2024-02-29T02:33:08.286Z,9.97
2024-02-29T02:34:08.145Z,9.91
2024-02-29T02:35:08.318Z,9.97
2024-02-29T02:36:08.180Z,9.91
2024-02-29T02:37:08.277Z,9.97
2024-02-29T02:38:08.079Z,9.97
2024-02-29T02:39:08.059Z,10.04
2024-02-29T02:40:08.304Z,9.93
2024-02-29T02:41:08.026Z,9.86
2024-02-29T02:42:08.091Z,9.89
2024-02-29T02:43:08.066Z,9.96
2024-02-29T02:44:07.976Z,9.99
2024-02-29T02:45:07.966Z,9.97
2024-02-29T02:46:08.021Z,10.01
2024-02-29T02:47:07.948Z,10.06
2024-02-29T02:48:08.015Z,10.07
2024-02-29T02:49:08.034Z,10.12
2024-02-29T02:50:07.970Z,10.14
2024-02-29T02:51:07.941Z,10.14
2024-02-29T02:52:07.887Z,10.14
2024-02-29T02:53:07.891Z,10.07
2024-02-29T02:54:07.869Z,10.01
2024-02-29T02:55:07.885Z,9.94
2024-02-29T02:56:07.820Z,9.93
2024-02-29T02:57:07.823Z,9.86
2024-02-29T02:58:07.841Z,9.79
2024-02-29T02:59:07.776Z,9.78
2024-02-29T03:00:07.813Z,9.79
2024-02-29T03:01:07.884Z,9.82
2024-02-29T03:02:07.797Z,9.83
2024-02-29T03:03:07.726Z,9.88
2024-02-29T03:04:07.753Z,9.93
2024-02-29T03:05:07.726Z,9.93
2024-02-29T03:06:07.790Z,9.91
2024-02-29T03:07:07.816Z,9.94
2024-02-29T03:08:07.656Z,9.91
2024-02-29T03:09:07.675Z,9.83
2024-02-29T03:10:07.704Z,9.82
2024-02-29T03:11:07.729Z,9.79
2024-02-29T03:12:07.621Z,9.64
2024-02-29T03:13:07.722Z,9.66
2024-02-29T03:14:07.572Z,9.71
2024-02-29T03:15:07.615Z,9.79
2024-02-29T03:16:07.606Z,9.83
2024-02-29T03:17:07.587Z,9.78
2024-02-29T03:18:07.577Z,9.70
2024-02-29T03:19:07.558Z,9.64
2024-02-29T03:20:07.513Z,9.58
2024-02-29T03:21:07.546Z,9.57
2024-02-29T03:22:07.638Z,9.57
2024-02-29T03:23:07.608Z,9.53
2024-02-29T03:24:07.462Z,9.49
2024-02-29T03:25:07.499Z,9.48
2024-02-29T03:26:07.447Z,9.46
2024-02-29T03:27:07.414Z,9.45
2024-02-29T03:28:07.519Z,9.40
2024-02-29T03:29:07.413Z,9.34
2024-02-29T03:30:07.415Z,9.30
2024-02-29T03:31:07.433Z,9.12
2024-02-29T03:32:07.342Z,9.18
2024-02-29T03:33:07.391Z,9.21
2024-02-29T03:34:07.346Z,9.23
2024-02-29T03:35:07.342Z,9.27
2024-02-29T03:36:07.306Z,9.25
2024-02-29T03:37:07.308Z,9.28
2024-02-29T03:38:07.325Z,9.28
2024-02-29T03:39:07.290Z,9.28
2024-02-29T03:40:07.269Z,9.25
2024-02-29T03:41:07.251Z,9.27
2024-02-29T03:42:07.246Z,9.35
2024-02-29T03:43:07.231Z,9.45
2024-02-29T03:44:07.196Z,9.49
2024-02-29T03:45:07.174Z,9.58
2024-02-29T03:46:07.233Z,9.64
2024-02-29T03:47:07.176Z,9.68
2024-02-29T03:48:07.193Z,9.75
2024-02-29T03:49:07.179Z,9.68
2024-02-29T03:50:07.127Z,9.45
2024-02-29T03:51:07.115Z,9.27
2024-02-29T03:52:07.154Z,9.20
2024-02-29T03:53:07.096Z,9.20
2024-02-29T03:54:07.061Z,9.15
2024-02-29T03:55:07.111Z,9.12
2024-02-29T03:56:07.059Z,8.96
2024-02-29T03:57:07.011Z,8.88
2024-02-29T03:58:07.026Z,8.84
2024-02-29T03:59:07.001Z,8.78
2024-02-29T04:00:06.971Z,8.84
2024-02-29T04:01:07.049Z,8.88
2024-02-29T04:02:07.006Z,9.02
2024-02-29T04:03:06.950Z,9.18
2024-02-29T04:04:07.014Z,9.23
2024-02-29T04:05:06.950Z,9.09
2024-02-29T04:06:06.895Z,8.87
2024-02-29T04:07:06.951Z,8.79
2024-02-29T04:08:06.915Z,8.81
2024-02-29T04:09:06.868Z,8.83
2024-02-29T04:10:06.930Z,8.94
2024-02-29T04:11:06.886Z,9.13
2024-02-29T04:12:06.810Z,9.24
2024-02-29T04:13:06.894Z,9.34
2024-02-29T04:14:06.831Z,9.39
2024-02-29T04:15:06.800Z,9.40
2024-02-29T04:16:06.820Z,9.45
2024-02-29T04:17:06.854Z,9.43
2024-02-29T04:18:06.777Z,9.45
2024-02-29T04:19:06.953Z,9.40
2024-02-29T04:20:06.748Z,9.45
2024-02-29T04:21:06.711Z,9.45
2024-02-29T04:22:06.797Z,9.45
2024-02-29T04:23:06.681Z,9.43
2024-02-29T04:24:06.749Z,9.46
2024-02-29T04:25:06.712Z,9.48
2024-02-29T04:26:06.642Z,9.45
2024-02-29T04:27:06.609Z,9.42
2024-02-29T04:28:06.736Z,9.32
2024-02-29T04:29:06.611Z,9.28
2024-02-29T04:30:06.630Z,9.18
2024-02-29T04:31:06.638Z,9.23
2024-02-29T04:32:06.570Z,9.20
2024-02-29T04:33:06.570Z,9.28
2024-02-29T04:34:06.541Z,9.31
2024-02-29T04:35:06.507Z,9.31
2024-02-29T04:36:06.506Z,9.15
2024-02-29T04:37:06.544Z,9.05
2024-02-29T04:38:06.483Z,9.01
2024-02-29T04:39:06.463Z,8.96
2024-02-29T04:40:09.744Z,9.01
2024-02-29T04:41:06.426Z,9.04
2024-02-29T04:42:06.425Z,9.09
2024-02-29T04:43:06.416Z,9.12
2024-02-29T04:44:06.430Z,9.16
2024-02-29T04:45:06.396Z,9.23
2024-02-29T04:46:06.424Z,9.24
2024-02-29T04:47:06.349Z,9.24
2024-02-29T04:48:06.385Z,9.25
2024-02-29T04:49:06.385Z,9.27
2024-02-29T04:50:06.341Z,9.30
2024-02-29T04:51:06.312Z,9.28
2024-02-29T04:52:06.354Z,9.30
2024-02-29T04:53:06.296Z,9.31
2024-02-29T04:54:06.279Z,9.31
2024-02-29T04:55:06.277Z,9.32
2024-02-29T04:56:06.264Z,9.30
2024-02-29T04:57:06.224Z,9.30
2024-02-29T04:58:06.304Z,9.35
2024-02-29T04:59:06.209Z,9.31
2024-02-29T05:00:06.185Z,9.31
2024-02-29T05:01:06.288Z,9.28
2024-02-29T05:02:07.652Z,9.32
2024-02-29T05:03:06.165Z,9.34
2024-02-29T05:04:06.192Z,9.38
2024-02-29T05:05:06.158Z,9.27
2024-02-29T05:06:06.111Z,9.13
2024-02-29T05:07:06.135Z,9.04
2024-02-29T05:08:06.104Z,8.97
2024-02-29T05:09:06.058Z,9.01
2024-02-29T05:10:06.129Z,9.06
2024-02-29T05:11:06.065Z,9.09
2024-02-29T05:12:06.006Z,9.10
2024-02-29T05:13:06.022Z,9.05
2024-02-29T05:14:06.051Z,9.02
2024-02-29T05:15:06.029Z,8.96
2024-02-29T05:16:06.023Z,8.91
2024-02-29T05:17:05.977Z,8.90
2024-02-29T05:18:06.138Z,8.88
2024-02-29T05:19:05.948Z,8.93
2024-02-29T05:20:05.920Z,8.93
2024-02-29T05:21:05.985Z,8.91
2024-02-29T05:22:05.948Z,8.88
2024-02-29T05:23:05.947Z,8.87
2024-02-29T05:24:05.866Z,8.65
2024-02-29T05:25:05.912Z,8.60
2024-02-29T05:26:05.832Z,8.73
2024-02-29T05:27:05.935Z,8.87
2024-02-29T05:28:05.836Z,8.96
2024-02-29T05:29:05.886Z,8.96
2024-02-29T05:30:05.785Z,8.93
2024-02-29T05:31:05.860Z,8.94
2024-02-29T05:32:05.761Z,8.97
2024-02-29T05:33:05.844Z,9.01
2024-02-29T05:34:05.787Z,9.01
2024-02-29T05:35:05.722Z,9.01
2024-02-29T05:36:05.734Z,8.99
2024-02-29T05:37:05.731Z,9.02
2024-02-29T05:38:05.705Z,9.04
2024-02-29T05:39:05.669Z,9.02
2024-02-29T05:40:05.671Z,9.04
2024-02-29T05:41:05.725Z,9.06
2024-02-29T05:42:05.631Z,9.10
2024-02-29T05:43:05.622Z,9.13
2024-02-29T05:44:05.599Z,9.15
2024-02-29T05:45:05.647Z,9.18
2024-02-29T05:46:05.717Z,9.20
2024-02-29T05:47:05.567Z,9.18
2024-02-29T05:48:05.614Z,9.18
2024-02-29T05:49:05.601Z,9.24
2024-02-29T05:50:05.527Z,9.20
2024-02-29T05:51:05.509Z,9.18
2024-02-29T05:52:05.565Z,9.16
2024-02-29T05:53:05.485Z,9.16
2024-02-29T05:54:05.550Z,9.06
2024-02-29T05:55:05.522Z,9.05
2024-02-29T05:56:05.481Z,9.09
2024-02-29T05:57:06.446Z,9.04
2024-02-29T05:58:05.475Z,9.04
2024-02-29T05:59:05.410Z,9.06
2024-02-29T06:00:05.425Z,9.04
2024-02-29T06:01:05.439Z,8.97
2024-02-29T06:02:05.471Z,8.91
2024-02-29T06:03:05.356Z,8.87
2024-02-29T06:04:05.398Z,8.94
2024-02-29T06:05:05.345Z,8.87
2024-02-29T06:06:05.314Z,8.88
2024-02-29T06:07:05.399Z,8.86
2024-02-29T06:08:05.272Z,8.75
2024-02-29T06:09:05.263Z,8.55
2024-02-29T06:10:05.339Z,8.45
2024-02-29T06:11:05.274Z,8.40
2024-02-29T06:12:05.251Z,8.51
2024-02-29T06:13:05.284Z,8.57
2024-02-29T06:14:05.212Z,8.66
2024-02-29T06:15:06.968Z,8.58
2024-02-29T06:16:05.243Z,8.69
2024-02-29T06:17:05.163Z,8.75
2024-02-29T06:18:05.197Z,8.81
2024-02-29T06:19:05.191Z,8.88
2024-02-29T06:20:05.152Z,8.93
2024-02-29T06:21:05.162Z,9.02
2024-02-29T06:22:05.208Z,9.13
2024-02-29T06:23:05.096Z,9.20
2024-02-29T06:24:05.117Z,9.25
2024-02-29T06:25:05.087Z,9.27
2024-02-29T06:26:05.048Z,9.25
2024-02-29T06:27:05.030Z,9.24
2024-02-29T06:28:05.072Z,9.24
2024-02-29T06:29:04.991Z,9.25
2024-02-29T06:30:04.991Z,9.21
2024-02-29T06:31:05.011Z,9.28
2024-02-29T06:32:05.083Z,9.32
2024-02-29T06:33:05.082Z,9.35
2024-02-29T06:34:05.050Z,9.40
2024-02-29T06:35:04.910Z,9.42
2024-02-29T06:36:07.365Z,9.42
2024-02-29T06:37:04.897Z,9.45
2024-02-29T06:38:04.879Z,9.49
2024-02-29T06:39:04.877Z,9.48
2024-02-29T06:40:04.929Z,9.48
2024-02-29T06:41:04.848Z,9.52
2024-02-29T06:42:04.854Z,9.53
2024-02-29T06:43:04.961Z,9.63
2024-02-29T06:44:04.806Z,9.64
2024-02-29T06:45:04.785Z,9.63
2024-02-29T06:46:04.886Z,9.68
2024-02-29T06:47:04.752Z,9.75
2024-02-29T06:48:04.757Z,9.68
2024-02-29T06:49:04.749Z,9.60
2024-02-29T06:50:04.744Z,9.63
2024-02-29T06:51:04.722Z,9.60
2024-02-29T06:52:04.793Z,9.61
2024-02-29T06:53:04.680Z,9.64
2024-02-29T06:54:04.667Z,9.64
2024-02-29T06:55:04.689Z,9.66
2024-02-29T06:56:04.677Z,9.68
2024-02-29T06:57:04.664Z,9.60
2024-02-29T06:58:04.748Z,9.58
2024-02-29T06:59:04.648Z,9.64
2024-02-29T07:00:04.591Z,9.73
2024-02-29T07:01:04.604Z,9.75
2024-02-29T07:02:04.598Z,9.70
2024-02-29T07:03:04.540Z,9.75
2024-02-29T07:04:04.636Z,9.78
2024-02-29T07:05:04.523Z,9.79
2024-02-29T07:06:04.536Z,9.82
2024-02-29T07:07:04.570Z,9.81
2024-02-29T07:08:04.560Z,9.78
2024-02-29T07:09:04.465Z,9.82
2024-02-29T07:10:04.560Z,9.86
2024-02-29T07:11:04.508Z,9.86
2024-02-29T07:12:04.445Z,9.93
2024-02-29T07:13:04.445Z,9.91
2024-02-29T07:14:04.435Z,9.68
2024-02-29T07:15:04.426Z,9.66
2024-02-29T07:16:04.534Z,9.75
2024-02-29T07:17:04.363Z,9.78
2024-02-29T07:18:04.383Z,9.79
2024-02-29T07:19:04.379Z,9.71
2024-02-29T07:20:04.343Z,9.71
2024-02-29T07:21:04.302Z,9.78
2024-02-29T07:22:04.386Z,9.86
2024-02-29T07:23:04.285Z,9.85
2024-02-29T07:24:04.248Z,9.61
2024-02-29T07:25:04.379Z,9.53
2024-02-29T07:26:04.243Z,9.43
2024-02-29T07:27:04.235Z,9.45
2024-02-29T07:28:04.367Z,9.57
2024-02-29T07:29:04.206Z,9.50
2024-02-29T07:30:04.218Z,9.52
2024-02-29T07:31:04.261Z,9.63
2024-02-29T07:32:04.257Z,9.64
2024-02-29T07:33:04.287Z,9.64
2024-02-29T07:34:04.191Z,9.66
2024-02-29T07:35:04.120Z,9.73
2024-02-29T07:36:04.233Z,9.79
2024-02-29T07:37:04.208Z,9.91
2024-02-29T07:38:04.092Z,9.99
2024-02-29T07:39:04.117Z,10.01
2024-02-29T07:40:04.127Z,10.00
2024-02-29T07:41:04.056Z,9.96
2024-02-29T07:42:04.091Z,9.94
2024-02-29T07:43:04.168Z,10.04
2024-02-29T07:44:04.041Z,10.06
2024-02-29T07:45:04.047Z,10.09
2024-02-29T07:46:04.109Z,10.10
2024-02-29T07:47:04.053Z,10.06
2024-02-29T07:48:04.055Z,10.06
2024-02-29T07:49:04.014Z,10.04
2024-02-29T07:50:03.923Z,9.85
2024-02-29T07:51:04.630Z,9.93
2024-02-29T07:52:03.960Z,9.85
2024-02-29T07:53:03.917Z,9.89
2024-02-29T07:54:03.865Z,9.99
2024-02-29T07:55:03.955Z,10.01
2024-02-29T07:56:03.835Z,9.99
2024-02-29T07:57:03.829Z,10.14
2024-02-29T07:58:03.892Z,10.22
2024-02-29T07:59:03.799Z,10.26
2024-02-29T08:00:03.806Z,10.06
2024-02-29T08:01:03.938Z,9.97
2024-02-29T08:02:03.828Z,10.01
2024-02-29T08:03:03.744Z,9.89
2024-02-29T08:04:03.831Z,9.85
2024-02-29T08:05:03.731Z,9.88
2024-02-29T08:06:03.739Z,9.99
2024-02-29T08:07:03.711Z,10.01
2024-02-29T08:08:03.697Z,10.18
2024-02-29T08:09:03.726Z,9.99
2024-02-29T08:10:03.752Z,10.03
2024-02-29T08:11:03.654Z,10.06
2024-02-29T08:12:03.748Z,10.17
2024-02-29T08:13:03.721Z,9.97
2024-02-29T08:14:03.602Z,9.85
2024-02-29T08:15:03.599Z,10.00
2024-02-29T08:16:03.635Z,10.06
2024-02-29T08:17:03.586Z,10.09
2024-02-29T08:18:03.595Z,10.21
2024-02-29T08:19:03.606Z,10.30
2024-02-29T08:20:03.519Z,10.18
2024-02-29T08:21:03.502Z,10.19
2024-02-29T08:22:03.589Z,10.30
2024-02-29T08:23:03.518Z,10.34
2024-02-29T08:24:03.466Z,10.42
2024-02-29T08:25:03.565Z,10.53
2024-02-29T08:26:03.466Z,10.62
2024-02-29T08:27:03.437Z,10.66
2024-02-29T08:28:03.528Z,10.73
2024-02-29T08:29:03.398Z,10.71
2024-02-29T08:30:03.561Z,10.83
2024-02-29T08:31:03.447Z,10.78
2024-02-29T08:32:03.406Z,10.77
2024-02-29T08:33:03.400Z,10.89
2024-02-29T08:34:03.400Z,11.01
2024-02-29T08:35:03.354Z,11.03
2024-02-29T08:36:03.319Z,10.99
2024-02-29T08:37:03.340Z,11.01
2024-02-29T08:38:03.291Z,10.99
2024-02-29T08:39:03.261Z,11.02
2024-02-29T08:40:03.348Z,10.95
2024-02-29T08:41:03.235Z,10.84
2024-02-29T08:42:03.236Z,10.83
2024-02-29T08:43:03.283Z,10.74
2024-02-29T08:44:03.211Z,10.84
2024-02-29T08:45:03.190Z,11.01
2024-02-29T08:46:03.220Z,11.03
2024-02-29T08:47:03.173Z,11.09
2024-02-29T08:48:03.188Z,11.09
2024-02-29T08:49:03.969Z,11.16
2024-02-29T08:50:03.118Z,11.21
2024-02-29T08:51:03.093Z,11.25
2024-02-29T08:52:03.139Z,11.16
2024-02-29T08:53:03.064Z,11.09
2024-02-29T08:54:03.076Z,11.13
2024-02-29T08:55:03.130Z,11.16
2024-02-29T08:56:03.078Z,11.32
2024-02-29T08:57:03.034Z,11.47
2024-02-29T08:58:03.090Z,11.53
2024-02-29T08:59:03.093Z,11.68
2024-02-29T09:00:02.985Z,11.68
2024-02-29T09:01:03.026Z,11.67
2024-02-29T09:02:03.112Z,11.65
2024-02-29T09:03:02.932Z,11.70
2024-02-29T09:04:03.105Z,11.99
2024-02-29T09:05:02.939Z,12.02
2024-02-29T09:06:02.961Z,12.04
2024-02-29T09:07:02.921Z,12.13
2024-02-29T09:08:02.912Z,12.20
2024-02-29T09:09:02.879Z,12.21
2024-02-29T09:10:02.961Z,12.21
2024-02-29T09:11:02.993Z,12.20
2024-02-29T09:12:02.870Z,12.24
2024-02-29T09:13:08.488Z,12.11
2024-02-29T09:14:03.837Z,12.20
2024-02-29T09:15:02.788Z,12.46
2024-02-29T09:16:02.853Z,12.59
2024-02-29T09:17:02.809Z,12.48
2024-02-29T09:18:02.883Z,12.37
2024-02-29T09:19:04.222Z,12.46
2024-02-29T09:20:02.750Z,12.30
2024-02-29T09:21:02.711Z,12.27
2024-02-29T09:22:02.751Z,12.48
2024-02-29T09:23:02.707Z,12.67
2024-02-29T09:24:02.692Z,12.64
2024-02-29T09:25:02.764Z,12.64
2024-02-29T09:26:02.645Z,12.63
2024-02-29T09:27:02.638Z,12.52
2024-02-29T09:28:02.676Z,12.41
2024-02-29T09:29:02.607Z,12.41
2024-02-29T09:30:02.628Z,12.39
2024-02-29T09:31:02.651Z,12.41
2024-02-29T09:32:02.581Z,12.41
2024-02-29T09:33:02.624Z,12.66
2024-02-29T09:34:02.553Z,12.81
2024-02-29T09:35:02.511Z,12.85
2024-02-29T09:36:02.518Z,12.81
2024-02-29T09:37:02.570Z,12.89
2024-02-29T09:38:02.590Z,12.93
2024-02-29T09:39:02.496Z,12.95
2024-02-29T09:40:05.164Z,12.92
2024-02-29T09:41:12.649Z,13.04
2024-02-29T09:43:02.463Z,13.09
2024-02-29T09:44:02.369Z,13.09
2024-02-29T09:45:02.370Z,13.20
2024-02-29T09:46:02.379Z,13.27
2024-02-29T09:47:02.363Z,13.59
2024-02-29T09:48:02.441Z,13.56
2024-02-29T09:49:02.357Z,13.55
2024-02-29T09:50:05.477Z,13.65
2024-02-29T09:51:02.287Z,13.77
2024-02-29T09:52:02.322Z,13.70
2024-02-29T09:53:02.322Z,13.62
2024-02-29T09:54:02.272Z,13.76
2024-02-29T09:55:02.349Z,13.81
2024-02-29T09:56:02.252Z,13.80
2024-02-29T09:57:02.348Z,13.73
2024-02-29T09:58:02.253Z,13.81
2024-02-29T09:59:02.193Z,13.87
2024-02-29T10:00:02.213Z,13.96
2024-02-29T10:01:02.267Z,13.84
2024-02-29T10:02:02.333Z,13.91
2024-02-29T10:03:02.165Z,13.92
2024-02-29T10:04:02.200Z,13.99
2024-02-29T10:05:02.154Z,14.09
2024-02-29T10:06:02.136Z,14.14
2024-02-29T10:07:02.382Z,14.16
2024-02-29T10:08:04.148Z,14.31
2024-02-29T10:09:02.093Z,14.35
2024-02-29T10:10:02.082Z,14.28
2024-02-29T10:11:02.081Z,14.25
2024-02-29T10:12:02.039Z,14.29
2024-02-29T10:13:02.138Z,14.32
2024-02-29T10:14:02.046Z,14.07
2024-02-29T10:15:02.010Z,14.21
2024-02-29T10:16:01.985Z,14.16
2024-02-29T10:17:01.990Z,14.14
2024-02-29T10:18:02.177Z,14.06
2024-02-29T10:19:02.021Z,13.99
2024-02-29T10:20:01.910Z,13.83
2024-02-29T10:21:01.899Z,13.99
2024-02-29T10:22:01.918Z,13.88
2024-02-29T10:23:01.891Z,13.76
2024-02-29T10:24:01.859Z,13.91
2024-02-29T10:25:01.863Z,14.02
2024-02-29T10:26:01.805Z,14.13
2024-02-29T10:27:01.908Z,14.31
2024-02-29T10:28:01.906Z,14.44
2024-02-29T10:29:01.783Z,14.64
2024-02-29T10:30:01.801Z,14.74
2024-02-29T10:31:01.826Z,14.69
2024-02-29T10:32:01.802Z,14.72
2024-02-29T10:33:01.761Z,14.94
2024-02-29T10:34:01.792Z,15.27
2024-02-29T10:35:01.709Z,15.27
2024-02-29T10:36:01.792Z,15.28
2024-02-29T10:37:01.754Z,15.23
2024-02-29T10:38:01.663Z,15.30
2024-02-29T10:39:01.651Z,15.59
2024-02-29T10:40:03.455Z,15.76
2024-02-29T10:41:01.682Z,15.79
2024-02-29T10:42:01.643Z,15.81
2024-02-29T10:43:01.679Z,15.64
2024-02-29T10:44:01.594Z,15.61
2024-02-29T10:45:01.614Z,15.56
2024-02-29T10:46:01.621Z,15.70
2024-02-29T10:47:01.540Z,15.56
2024-02-29T10:48:01.645Z,15.57
2024-02-29T10:49:01.567Z,15.59
2024-02-29T10:50:01.523Z,15.59
2024-02-29T10:51:01.478Z,15.60
2024-02-29T10:52:01.581Z,15.66
2024-02-29T10:53:01.470Z,15.70
2024-02-29T10:54:01.475Z,15.57
2024-02-29T10:55:01.466Z,15.61
2024-02-29T10:56:01.431Z,15.74
2024-02-29T10:57:01.407Z,15.89
2024-02-29T10:58:01.413Z,16.00
2024-02-29T10:59:01.388Z,15.94
2024-02-29T11:00:01.430Z,15.82
2024-02-29T11:01:01.507Z,15.79
2024-02-29T11:02:01.465Z,15.76
2024-02-29T11:03:01.326Z,15.82
2024-02-29T11:04:01.385Z,15.81
2024-02-29T11:05:01.295Z,15.79
2024-02-29T11:06:01.311Z,15.88
2024-02-29T11:07:01.312Z,15.86
2024-02-29T11:08:01.244Z,15.94
2024-02-29T11:09:01.266Z,16.01
2024-02-29T11:10:01.268Z,15.96
2024-02-29T11:11:01.236Z,16.00
2024-02-29T11:12:01.259Z,16.11
2024-02-29T11:13:01.224Z,16.06
2024-02-29T11:14:01.221Z,16.06
2024-02-29T11:15:01.164Z,15.82
2024-02-29T11:16:01.227Z,15.92
2024-02-29T11:17:01.119Z,15.67
2024-02-29T11:18:01.265Z,15.75
2024-02-29T11:19:01.204Z,15.79
2024-02-29T11:20:01.143Z,16.23
2024-02-29T11:21:01.145Z,16.50
2024-02-29T11:22:01.129Z,16.62
2024-02-29T11:23:06.488Z,16.63
2024-02-29T11:24:02.026Z,16.18
2024-02-29T11:25:01.338Z,15.94
2024-02-29T11:26:01.122Z,15.76
2024-02-29T11:27:01.000Z,15.74
2024-02-29T11:28:01.044Z,15.89
2024-02-29T11:29:00.981Z,16.22
2024-02-29T11:30:00.957Z,16.50
2024-02-29T11:31:00.968Z,16.58
2024-02-29T11:32:01.290Z,16.60
2024-02-29T11:33:00.934Z,16.67
2024-02-29T11:34:00.921Z,16.62
2024-02-29T11:35:00.909Z,16.44
2024-02-29T11:36:00.869Z,16.68
2024-02-29T11:37:00.959Z,16.85
2024-02-29T11:38:00.867Z,17.04
2024-02-29T11:39:00.888Z,17.15
2024-02-29T11:40:00.963Z,17.14
2024-02-29T11:41:00.848Z,17.22
2024-02-29T11:42:00.811Z,17.18
2024-02-29T11:43:00.940Z,17.35
2024-02-29T11:44:00.770Z,17.23
2024-02-29T11:45:00.855Z,16.92
2024-02-29T11:46:00.950Z,16.74
2024-02-29T11:47:00.751Z,16.93
2024-02-29T11:48:00.761Z,17.22
2024-02-29T11:49:00.805Z,17.35
2024-02-29T11:50:00.842Z,17.18
2024-02-29T11:51:00.666Z,17.26
2024-02-29T11:52:00.786Z,17.54
2024-02-29T11:53:00.703Z,17.78
2024-02-29T11:54:00.653Z,17.81
2024-02-29T11:55:00.683Z,17.81
2024-02-29T11:56:07.229Z,17.66
2024-02-29T11:57:01.728Z,17.50
2024-02-29T11:58:00.605Z,17.53
2024-02-29T11:59:00.595Z,17.51
2024-02-29T12:00:00.600Z,17.67
2024-02-29T12:01:00.602Z,17.95
2024-02-29T12:02:00.591Z,18.15
2024-02-29T12:03:00.596Z,18.03
2024-02-29T12:04:00.619Z,18.07
2024-02-29T12:05:00.611Z,18.09
2024-02-29T12:06:00.453Z,17.99
2024-02-29T12:07:00.532Z,17.84
2024-02-29T12:08:00.433Z,17.91
2024-02-29T12:09:00.510Z,17.89
2024-02-29T12:10:00.456Z,17.91
2024-02-29T12:11:00.422Z,18.09
2024-02-29T12:12:00.411Z,18.18
2024-02-29T12:13:00.522Z,17.87
2024-02-29T12:14:00.355Z,17.47
2024-02-29T12:15:00.406Z,17.44
2024-02-29T12:16:00.372Z,17.43
2024-02-29T12:17:00.361Z,17.50
2024-02-29T12:18:00.397Z,17.41
2024-02-29T12:19:00.330Z,17.55
2024-02-29T12:20:00.253Z,18.04
2024-02-29T12:21:00.315Z,18.43
2024-02-29T12:22:00.337Z,18.73
2024-02-29T12:23:00.232Z,18.77
2024-02-29T12:24:00.217Z,18.70
2024-02-29T12:25:00.397Z,18.50
2024-02-29T12:26:00.221Z,18.44
2024-02-29T12:27:00.342Z,18.42
2024-02-29T12:28:00.180Z,18.34
2024-02-29T12:29:00.192Z,18.22
2024-02-29T12:30:00.196Z,18.27
2024-02-29T12:31:00.199Z,18.34
2024-02-29T12:32:00.113Z,18.27
2024-02-29T12:33:00.165Z,18.21
2024-02-29T12:34:00.235Z,18.18
2024-02-29T12:35:00.088Z,18.18
2024-02-29T12:36:00.222Z,18.25
2024-02-29T12:37:00.197Z,18.22
2024-02-29T12:38:00.058Z,18.37
2024-02-29T12:39:00.054Z,18.68
2024-02-29T12:40:00.041Z,18.77
2024-02-29T12:40:59.984Z,18.55
2024-02-29T12:41:59.954Z,18.36
2024-02-29T12:43:00.007Z,18.42
2024-02-29T12:43:59.942Z,18.27
2024-02-29T12:44:59.964Z,18.12
2024-02-29T12:45:59.963Z,18.21
2024-02-29T12:46:59.900Z,18.40
2024-02-29T12:47:59.989Z,18.28
2024-02-29T12:48:59.956Z,18.27
2024-02-29T12:49:59.937Z,18.34
2024-02-29T12:50:59.921Z,18.22
2024-02-29T12:51:59.920Z,18.33
2024-02-29T12:52:59.831Z,18.34
2024-02-29T12:53:59.793Z,18.44
2024-02-29T12:54:59.802Z,18.68
2024-02-29T12:55:59.877Z,18.67
2024-02-29T12:56:59.817Z,18.68
2024-02-29T12:57:59.795Z,18.62
2024-02-29T12:58:59.822Z,18.77
2024-02-29T12:59:59.733Z,18.95
2024-02-29T13:00:59.753Z,18.94
2024-02-29T13:01:59.764Z,19.06
2024-02-29T13:02:59.712Z,18.77
2024-02-29T13:03:59.761Z,18.47